Antofagasta de la Sierra, Argentina
Current Conditions -  °F | °C
As of 3:00 PM on Friday 28 Nov 2014 (Local Time) from SASA Reporting Station
Broken Clouds Broken Clouds  
Wind Chill: 81°   Ceiling: 10000
Heat Index: 81°   Visibility: 6mi
Dew Point: 57°   Wind: 15mph
Humidity: 45%   Direction: 50°NE
Pressure: 29.94"   Gusts: NA
Location:  26.07°S, 67.42°W
Report Text: SASA 281800Z 05013KT 9999 SCT010TCU BKN100 27/14 Q1014
Loading
Personal Weather Stations






























Interactive Weather Map New forecast layout! Learn more

10-Day Weather Forecast

Advertisements
Track Severe Weather on mobile